Time;durP1;ratioP1;P1;durP2;ratioP2;P2;SDS_P1;SDS_P2;PMS_P1;PMS_P2;Temp;Humidity;BMP_temperature;BMP_pressure;BME280_temperature;BME280_humidity;BME280_pressure;Samples;Min_cycle;Max_cycle;Signal;HPM_P1;HPM_P2
2022/10/19 00:01:08;;;;;;;14.52;2.65;;;9.80;99.90;;;;;;4991861;28;20060;-71
2022/10/19 00:03:35;;;;;;;11.98;2.20;;;9.80;99.90;;;;;;4980850;28;206199;-71
2022/10/19 00:06:12;;;;;;;13.40;2.33;;;9.80;99.90;;;;;;5022784;28;20049;-71
2022/10/19 00:08:38;;;;;;;11.13;2.10;;;9.80;99.90;;;;;;4983302;28;212727;-71
2022/10/19 00:11:05;;;;;;;13.45;2.22;;;9.80;99.90;;;;;;5035404;28;20064;-72
2022/10/19 00:13:31;;;;;;;10.27;2.20;;;9.70;99.90;;;;;;4979785;28;217024;-72
2022/10/19 00:15:57;;;;;;;13.05;1.90;;;9.70;99.90;;;;;;5029018;28;20053;-72
2022/10/19 00:18:23;;;;;;;11.98;1.90;;;9.70;99.90;;;;;;4985466;28;209033;-71
2022/10/19 00:20:49;;;;;;;10.98;1.85;;;9.60;99.90;;;;;;5033510;28;20056;-72
2022/10/19 00:23:16;;;;;;;15.45;2.20;;;9.60;99.90;;;;;;4978883;28;214485;-71
2022/10/19 00:25:42;;;;;;;11.73;1.90;;;9.60;99.90;;;;;;5019419;28;20068;-72
2022/10/19 00:28:08;;;;;;;9.60;2.00;;;9.60;99.90;;;;;;4988211;28;227844;-72
2022/10/19 00:30:37;;;;;;;9.55;1.90;;;9.70;99.90;;;;;;5022949;28;20044;-72
2022/10/19 00:33:03;;;;;;;14.30;2.55;;;9.70;99.90;;;;;;5021749;28;234823;-72
2022/10/19 00:35:29;;;;;;;10.98;2.25;;;9.70;99.90;;;;;;4984180;28;206604;-71
2022/10/19 00:37:56;;;;;;;12.90;2.28;;;9.80;99.90;;;;;;5021533;28;20049;-71
2022/10/19 00:40:22;;;;;;;11.77;2.60;;;9.80;99.90;;;;;;4970125;28;216076;-71
2022/10/19 00:42:54;;;;;;;11.20;2.35;;;9.80;99.90;;;;;;5013976;28;20430;-72
2022/10/19 00:45:20;;;;;;;13.02;2.30;;;9.80;99.90;;;;;;4977909;28;214280;-71
2022/10/19 00:47:46;;;;;;;15.00;2.30;;;9.90;99.90;;;;;;5019612;28;20058;-72
2022/10/19 00:50:14;;;;;;;14.50;2.00;;;9.90;99.90;;;;;;4979738;28;216330;-72
2022/10/19 00:52:41;;;;;;;13.10;2.42;;;9.90;99.90;;;;;;5021771;28;20038;-72
2022/10/19 00:55:08;;;;;;;13.82;2.40;;;9.90;99.90;;;;;;4973027;28;212107;-72
2022/10/19 00:57:34;;;;;;;11.77;2.40;;;10.00;99.90;;;;;;5007855;28;20054;-72
2022/10/19 01:00:04;;;;;;;15.32;2.55;;;10.00;99.90;;;;;;4972979;28;205838;-71
2022/10/19 01:02:30;;;;;;;10.85;2.72;;;10.00;99.90;;;;;;5020756;28;20491;-72
2022/10/19 01:04:58;;;;;;;9.32;2.13;;;10.00;99.90;;;;;;4984153;28;206748;-72
2022/10/19 01:07:25;;;;;;;15.27;2.42;;;10.00;99.90;;;;;;5001753;28;20068;-73
2022/10/19 01:09:52;;;;;;;11.02;2.25;;;10.00;99.90;;;;;;4964251;28;215844;-72
2022/10/19 01:12:40;;;;;;;11.98;2.30;;;10.00;99.90;;;;;;5024079;28;20053;-71
2022/10/19 01:15:36;;;;;;;13.93;2.53;;;10.10;99.90;;;;;;4991812;28;221770;-71
2022/10/19 01:18:16;;;;;;;12.80;2.40;;;10.10;99.90;;;;;;5041743;28;206223;-71
2022/10/19 01:21:18;;;;;;;9.98;2.67;;;10.10;99.90;;;;;;5017531;28;20046;-71
2022/10/19 01:23:59;;;;;;;14.23;2.58;;;10.00;99.90;;;;;;4945135;28;207061;-71
2022/10/19 01:26:54;;;;;;;11.18;2.35;;;10.00;99.90;;;;;;4990413;28;20042;-71
2022/10/19 01:29:36;;;;;;;14.07;2.70;;;10.10;99.90;;;;;;4934744;28;206650;-71
2022/10/19 01:32:10;;;;;;;12.25;2.72;;;10.10;99.90;;;;;;4985619;28;20046;-72
2022/10/19 01:34:47;;;;;;;13.27;2.67;;;10.10;99.90;;;;;;4934431;28;206934;-72
2022/10/19 01:37:19;;;;;;;13.20;2.20;;;10.10;99.90;;;;;;4999473;28;20046;-72
2022/10/19 01:40:03;;;;;;;11.60;2.20;;;10.10;99.90;;;;;;4964000;28;152074;-72
2022/10/19 01:42:48;;;;;;;13.70;2.55;;;10.10;99.90;;;;;;4987444;28;20056;-71
2022/10/19 01:45:34;;;;;;;11.02;2.40;;;10.20;99.90;;;;;;4959555;28;203887;-72
2022/10/19 01:48:06;;;;;;;10.60;2.22;;;10.20;99.90;;;;;;4980151;28;33821;-72
2022/10/19 01:50:37;;;;;;;;;;;10.10;99.90;;;;;;4973728;28;208247;-72
2022/10/19 01:53:08;;;;;;;13.77;2.38;;;10.20;99.90;;;;;;4989910;28;186703;-72
2022/10/19 01:55:38;;;;;;;11.95;2.75;;;10.20;99.90;;;;;;4949325;28;53275;-72
2022/10/19 01:58:07;;;;;;;13.65;2.33;;;10.20;99.90;;;;;;4962216;28;69473;-71
2022/10/19 02:00:36;;;;;;;12.70;2.17;;;10.20;99.90;;;;;;4962141;28;206806;-72
2022/10/19 02:03:04;;;;;;;15.93;2.67;;;10.20;99.90;;;;;;4987558;28;226848;-71
2022/10/19 02:05:32;;;;;;;12.93;2.50;;;10.20;99.90;;;;;;4995902;28;211310;-72
2022/10/19 02:08:03;;;;;;;14.38;2.38;;;10.20;99.90;;;;;;5028819;28;20076;-72
2022/10/19 02:10:33;;;;;;;10.00;2.08;;;10.20;99.90;;;;;;4984938;28;205382;-72
2022/10/19 02:13:01;;;;;;;16.25;2.50;;;10.30;99.90;;;;;;5007410;28;20502;-71
2022/10/19 02:15:29;;;;;;;13.90;2.50;;;10.30;99.90;;;;;;4959935;28;206139;-71
2022/10/19 02:17:58;;;;;;;12.00;2.58;;;10.30;99.90;;;;;;5019833;28;20050;-71
2022/10/19 02:20:27;;;;;;;10.90;2.22;;;10.30;99.90;;;;;;4975349;28;228072;-71
2022/10/19 02:22:53;;;;;;;14.23;2.53;;;10.40;99.90;;;;;;5031850;28;20401;-72
2022/10/19 02:25:20;;;;;;;12.88;2.10;;;10.40;99.90;;;;;;4978031;28;206731;-71
2022/10/19 02:27:46;;;;;;;12.38;2.30;;;10.40;99.90;;;;;;5033140;28;20057;-72
2022/10/19 02:30:15;;;;;;;12.77;2.20;;;10.50;99.90;;;;;;4991082;28;155251;-72
2022/10/19 02:32:43;;;;;;;13.10;2.10;;;10.40;99.90;;;;;;5025849;28;20560;-73
2022/10/19 02:35:11;;;;;;;12.48;2.42;;;10.40;99.90;;;;;;4983906;28;208456;-72
2022/10/19 02:37:39;;;;;;;11.40;2.20;;;10.40;99.90;;;;;;5022770;28;20049;-72
2022/10/19 02:40:05;;;;;;;12.13;2.40;;;10.30;99.90;;;;;;4961958;28;210601;-72
2022/10/19 02:42:37;;;;;;;13.52;2.60;;;10.30;99.90;;;;;;5050399;28;20403;-72
2022/10/19 02:45:28;;;;;;;10.27;2.00;;;10.30;99.90;;;;;;4988598;28;212302;-72
2022/10/19 02:48:10;;;;;;;15.00;2.03;;;10.20;99.90;;;;;;5023571;28;20053;-72
2022/10/19 02:50:36;;;;;;;9.82;1.92;;;10.10;99.90;;;;;;4970037;28;207004;-73
2022/10/19 02:53:02;;;;;;;11.07;2.25;;;10.10;99.90;;;;;;5006813;28;207723;-72
2022/10/19 02:55:29;;;;;;;16.90;2.38;;;10.10;99.90;;;;;;5001399;28;67121;-72
2022/10/19 02:57:56;;;;;;;9.05;2.22;;;10.00;99.90;;;;;;5015099;28;20045;-72
2022/10/19 03:00:22;;;;;;;8.93;2.13;;;9.90;99.90;;;;;;4980705;28;206691;-72
2022/10/19 03:02:48;;;;;;;10.75;2.30;;;9.90;99.90;;;;;;5023855;28;20049;-72
2022/10/19 03:05:14;;;;;;;13.82;2.13;;;9.80;99.90;;;;;;4981884;28;206828;-72
2022/10/19 03:07:41;;;;;;;9.63;2.00;;;9.80;99.90;;;;;;5006233;28;20079;-72
2022/10/19 03:10:08;;;;;;;13.70;2.20;;;9.70;99.90;;;;;;4977868;28;208625;-72
2022/10/19 03:12:34;;;;;;;13.02;1.83;;;9.70;99.90;;;;;;5009980;28;20503;-73
2022/10/19 03:15:00;;;;;;;9.48;1.77;;;9.60;99.90;;;;;;4987208;28;213079;-72
2022/10/19 03:17:26;;;;;;;10.88;2.15;;;9.60;99.90;;;;;;5013971;28;20053;-72
2022/10/19 03:19:53;;;;;;;14.93;2.40;;;9.50;99.90;;;;;;4993446;28;209688;-72
2022/10/19 03:22:19;;;;;;;8.50;2.13;;;9.50;99.90;;;;;;5032100;28;20503;-72
2022/10/19 03:24:45;;;;;;;12.50;2.50;;;9.50;99.90;;;;;;5005361;28;206658;-72
2022/10/19 03:27:11;;;;;;;11.50;2.10;;;9.50;99.90;;;;;;5023820;28;20050;-72
2022/10/19 03:29:37;;;;;;;13.35;2.35;;;9.40;99.90;;;;;;4990457;28;209174;-72
2022/10/19 03:32:03;;;;;;;10.52;2.13;;;9.40;99.90;;;;;;5019789;28;20054;-72
2022/10/19 03:34:30;;;;;;;14.40;2.25;;;9.50;99.90;;;;;;4986180;28;209350;-72
2022/10/19 03:36:58;;;;;;;13.30;2.58;;;9.50;99.90;;;;;;5033923;28;20054;-72
2022/10/19 03:39:24;;;;;;;12.02;2.72;;;9.50;99.90;;;;;;4980701;28;206551;-73
2022/10/19 03:41:50;;;;;;;13.18;2.55;;;9.50;99.90;;;;;;5022159;28;20050;-72
2022/10/19 03:44:16;;;;;;;13.00;2.53;;;9.60;99.90;;;;;;4987930;28;89685;-71
2022/10/19 03:46:43;;;;;;;12.05;2.20;;;9.60;99.90;;;;;;5031012;28;20072;-71
2022/10/19 03:49:10;;;;;;;14.70;2.40;;;9.60;99.90;;;;;;4998442;28;206758;-71
2022/10/19 03:51:36;;;;;;;12.98;2.35;;;9.60;99.90;;;;;;5032917;28;20045;-72
2022/10/19 03:54:06;;;;;;;13.73;2.10;;;9.60;99.90;;;;;;4968333;28;207611;-72
2022/10/19 03:56:34;;;;;;;13.10;2.38;;;9.50;99.90;;;;;;5004376;28;20056;-71
2022/10/19 03:59:01;;;;;;;11.23;2.10;;;9.50;99.90;;;;;;4985353;28;206430;-71
2022/10/19 04:01:32;;;;;;;13.50;2.05;;;9.40;99.90;;;;;;5012942;28;20053;-71
2022/10/19 04:04:04;;;;;;;11.20;1.95;;;9.30;99.90;;;;;;5005160;28;210520;-72
2022/10/19 04:06:36;;;;;;;10.75;2.08;;;9.20;99.90;;;;;;5030354;28;20053;-72
2022/10/19 04:09:03;;;;;;;13.68;2.13;;;9.10;99.90;;;;;;4990715;28;208724;-72
2022/10/19 04:11:32;;;;;;;16.65;2.10;;;9.00;99.90;;;;;;5029999;28;20057;-72
2022/10/19 04:13:59;;;;;;;16.30;2.08;;;8.90;99.90;;;;;;4973721;28;207573;-72
2022/10/19 04:16:27;;;;;;;12.23;1.90;;;8.90;99.90;;;;;;5025623;28;20690;-72
2022/10/19 04:18:54;;;;;;;9.27;1.63;;;8.80;99.90;;;;;;4992316;28;214800;-72
2022/10/19 04:21:25;;;;;;;13.63;2.30;;;8.80;99.90;;;;;;5022878;28;20743;-72
2022/10/19 04:23:53;;;;;;;16.42;2.58;;;8.70;99.90;;;;;;4978436;28;206274;-72
2022/10/19 04:26:20;;;;;;;13.10;2.30;;;8.60;99.90;;;;;;5018311;28;20053;-72
2022/10/19 04:28:46;;;;;;;13.18;1.92;;;8.60;99.90;;;;;;4986302;28;202778;-72
2022/10/19 04:31:12;;;;;;;10.95;2.20;;;8.50;99.90;;;;;;5033472;28;20517;-72
2022/10/19 04:33:39;;;;;;;13.60;2.40;;;8.60;99.90;;;;;;4985179;28;212288;-72
2022/10/19 04:36:08;;;;;;;13.00;3.28;;;8.60;99.90;;;;;;5048932;28;20034;-72
2022/10/19 04:38:35;;;;;;;11.25;3.10;;;8.60;99.90;;;;;;4976933;28;206716;-72
2022/10/19 04:41:10;;;;;;;13.15;2.78;;;8.60;99.90;;;;;;5050491;28;20046;-72
2022/10/19 04:43:37;;;;;;;10.80;2.88;;;8.60;99.90;;;;;;4978111;28;208270;-73
2022/10/19 04:46:09;;;;;;;13.07;3.10;;;8.60;99.90;;;;;;5005106;28;20038;-73
2022/10/19 04:48:37;;;;;;;9.43;3.05;;;8.60;99.90;;;;;;4973415;28;208872;-72
2022/10/19 04:51:03;;;;;;;15.40;2.97;;;8.60;99.90;;;;;;5015169;28;20053;-72
2022/10/19 04:53:30;;;;;;;11.70;2.90;;;8.70;99.90;;;;;;4988024;28;208885;-71
2022/10/19 04:55:57;;;;;;;18.25;2.90;;;8.70;99.90;;;;;;5038798;28;20068;-72
2022/10/19 04:58:23;;;;;;;10.50;2.73;;;8.70;99.90;;;;;;4982550;28;209461;-71
2022/10/19 05:00:50;;;;;;;15.55;2.85;;;8.70;99.90;;;;;;5022586;28;20053;-70
2022/10/19 05:03:16;;;;;;;15.33;2.83;;;8.70;99.90;;;;;;4982287;28;225503;-71
2022/10/19 05:05:43;;;;;;;14.55;2.63;;;8.70;99.90;;;;;;5020083;28;20053;-71
2022/10/19 05:08:10;;;;;;;12.65;2.47;;;8.70;99.90;;;;;;4978194;28;213306;-72
2022/10/19 05:10:37;;;;;;;11.82;2.50;;;8.70;99.90;;;;;;5040998;28;20379;-72
2022/10/19 05:13:03;;;;;;;14.13;2.60;;;8.70;99.90;;;;;;5007306;28;20287;-72
2022/10/19 05:15:29;;;;;;;12.10;2.60;;;8.70;99.90;;;;;;5007129;28;20517;-72
2022/10/19 05:17:55;;;;;;;14.50;2.40;;;8.70;99.90;;;;;;4981417;28;241957;-72
2022/10/19 05:20:23;;;;;;;11.70;2.60;;;8.70;99.90;;;;;;5022802;28;20053;-72
2022/10/19 05:22:49;;;;;;;11.40;2.40;;;8.70;99.90;;;;;;4986780;28;212615;-72
2022/10/19 05:25:16;;;;;;;13.65;2.67;;;8.70;99.90;;;;;;5004424;28;20040;-72
2022/10/19 05:27:42;;;;;;;11.43;2.20;;;8.70;99.90;;;;;;4995764;28;211496;-72
2022/10/19 05:30:09;;;;;;;13.60;2.28;;;8.70;99.90;;;;;;5037128;28;20056;-72
2022/10/19 05:32:35;;;;;;;16.80;2.33;;;8.70;99.90;;;;;;4990533;28;206556;-73
2022/10/19 05:35:01;;;;;;;15.35;2.38;;;8.80;99.90;;;;;;5022779;28;20064;-72
2022/10/19 05:37:27;;;;;;;12.00;1.95;;;8.80;99.90;;;;;;4976870;28;208614;-72
2022/10/19 05:39:54;;;;;;;12.82;1.80;;;8.80;99.90;;;;;;5022704;28;20061;-71
2022/10/19 05:42:20;;;;;;;13.38;1.95;;;8.80;99.90;;;;;;4972439;28;228074;-71
2022/10/19 05:44:46;;;;;;;15.30;2.40;;;8.80;99.90;;;;;;5017330;28;20167;-72
2022/10/19 05:47:12;;;;;;;14.10;1.90;;;8.80;99.90;;;;;;4975726;28;205842;-72
2022/10/19 05:49:38;;;;;;;14.75;2.08;;;8.80;99.90;;;;;;5016542;28;20509;-72
2022/10/19 05:52:04;;;;;;;15.30;2.38;;;8.80;99.90;;;;;;4976240;28;215821;-72
2022/10/19 05:54:31;;;;;;;16.23;2.40;;;8.80;99.90;;;;;;5001205;28;20053;-71
2022/10/19 05:56:57;;;;;;;12.48;2.05;;;8.80;99.90;;;;;;4991883;28;206749;-72
2022/10/19 05:59:23;;;;;;;15.73;2.03;;;8.80;99.90;;;;;;5032394;28;20057;-71
2022/10/19 06:01:49;;;;;;;15.15;2.00;;;8.80;99.90;;;;;;4988094;28;209698;-71
2022/10/19 06:04:15;;;;;;;17.83;2.22;;;8.90;99.90;;;;;;5025323;28;20065;-71
2022/10/19 06:06:42;;;;;;;14.10;1.92;;;8.90;99.90;;;;;;4976520;28;209870;-71
2022/10/19 06:09:08;;;;;;;12.65;1.80;;;8.80;99.90;;;;;;5004548;28;20499;-71
2022/10/19 06:11:38;;;;;;;18.42;2.00;;;9.00;99.90;;;;;;4963572;28;216014;-72
2022/10/19 06:14:09;;;;;;;15.85;2.00;;;9.00;99.90;;;;;;5025584;28;20067;-72
2022/10/19 06:16:36;;;;;;;16.13;2.90;;;9.00;99.90;;;;;;4974669;28;213491;-71
2022/10/19 06:19:04;;;;;;;15.10;2.10;;;9.00;99.90;;;;;;5030792;28;20049;-71
2022/10/19 06:21:31;;;;;;;18.02;2.53;;;9.00;99.90;;;;;;4983259;28;208907;-71
2022/10/19 06:24:00;;;;;;;17.13;2.20;;;9.10;99.90;;;;;;4995362;28;20556;-73
2022/10/19 06:26:28;;;;;;;17.73;2.40;;;9.10;99.90;;;;;;4984193;28;218980;-72
2022/10/19 06:28:58;;;;;;;17.88;1.95;;;9.20;99.90;;;;;;5036907;28;20046;-71
2022/10/19 06:31:24;;;;;;;16.92;2.38;;;9.20;99.90;;;;;;4985199;28;218894;-72
2022/10/19 06:33:50;;;;;;;14.20;2.15;;;9.20;99.90;;;;;;5031910;28;20058;-72
2022/10/19 06:36:19;;;;;;;16.73;2.40;;;9.30;99.90;;;;;;5015635;28;207353;-73
2022/10/19 06:38:46;;;;;;;16.52;2.20;;;9.30;99.90;;;;;;4997555;28;208527;-72
2022/10/19 06:41:12;;;;;;;13.27;2.00;;;9.40;99.90;;;;;;5018054;28;20053;-72
2022/10/19 06:43:39;;;;;;;15.82;2.00;;;9.40;99.90;;;;;;4983463;28;211117;-72
2022/10/19 06:46:07;;;;;;;11.73;2.03;;;9.40;99.90;;;;;;5024082;28;20113;-72
2022/10/19 06:48:33;;;;;;;18.83;2.40;;;9.40;99.90;;;;;;4967933;28;153926;-72
2022/10/19 06:51:02;;;;;;;12.85;2.00;;;9.50;99.90;;;;;;5024153;28;20072;-72
2022/10/19 06:53:28;;;;;;;18.52;2.20;;;9.50;99.90;;;;;;4977208;28;206743;-71
2022/10/19 06:55:59;;;;;;;13.98;2.10;;;9.50;99.90;;;;;;5009861;28;20060;-70
2022/10/19 06:58:25;;;;;;;15.17;2.10;;;9.60;99.90;;;;;;4994634;28;211149;-71
2022/10/19 07:00:55;;;;;;;14.73;2.05;;;9.70;99.90;;;;;;5021890;28;20052;-71
2022/10/19 07:03:23;;;;;;;16.73;2.10;;;9.70;99.90;;;;;;4977605;28;224962;-71
2022/10/19 07:05:54;;;;;;;13.63;1.80;;;9.70;99.90;;;;;;5027592;28;20050;-71
2022/10/19 07:08:20;;;;;;;14.05;3.25;;;9.80;99.90;;;;;;4962937;28;206566;-72
2022/10/19 07:10:55;;;;;;;16.35;2.45;;;9.90;99.90;;;;;;5022206;28;20053;-72
2022/10/19 07:13:22;;;;;;;13.77;1.92;;;10.00;99.90;;;;;;4978215;28;222849;-72
2022/10/19 07:15:48;;;;;;;18.60;2.20;;;10.00;99.90;;;;;;5028024;28;20057;-73
2022/10/19 07:18:15;;;;;;;18.02;2.22;;;10.10;99.90;;;;;;4984494;28;221381;-73
2022/10/19 07:20:41;;;;;;;18.10;2.58;;;10.20;99.90;;;;;;5024585;28;20060;-73
2022/10/19 07:23:07;;;;;;;15.13;2.40;;;10.20;99.90;;;;;;4965690;28;210101;-72
2022/10/19 07:25:35;;;;;;;13.27;2.15;;;10.30;99.90;;;;;;5019440;28;20049;-72
2022/10/19 07:28:01;;;;;;;16.55;2.10;;;10.40;99.90;;;;;;4971237;28;207648;-73
2022/10/19 07:30:27;;;;;;;14.80;2.28;;;10.40;99.90;;;;;;5023691;28;20050;-71
2022/10/19 07:32:53;;;;;;;16.98;2.20;;;10.50;99.90;;;;;;4996471;28;214231;-72
2022/10/19 07:35:20;;;;;;;16.48;2.33;;;10.60;99.90;;;;;;5021980;28;20049;-71
2022/10/19 07:37:46;;;;;;;16.75;2.08;;;10.60;99.90;;;;;;4986514;28;180870;-71
2022/10/19 07:40:12;;;;;;;14.95;1.92;;;10.70;99.90;;;;;;5024283;28;20501;-72
2022/10/19 07:42:38;;;;;;;16.30;2.30;;;10.80;99.90;;;;;;4997982;28;206945;-73
2022/10/19 07:45:05;;;;;;;14.43;2.30;;;10.90;99.90;;;;;;5025427;28;20060;-71
2022/10/19 07:47:32;;;;;;;13.50;2.00;;;10.90;99.90;;;;;;4977070;28;206995;-72
2022/10/19 07:49:58;;;;;;;13.00;1.80;;;11.00;99.90;;;;;;5029846;28;20041;-72
2022/10/19 07:52:24;;;;;;;15.32;1.98;;;11.00;99.90;;;;;;4975942;28;208150;-71
2022/10/19 07:54:51;;;;;;;17.33;2.30;;;11.10;99.90;;;;;;5029460;28;20040;-71
2022/10/19 07:57:17;;;;;;;13.10;1.95;;;11.20;99.90;;;;;;4958961;28;206375;-71
2022/10/19 07:59:43;;;;;;;15.38;1.80;;;11.20;99.90;;;;;;5014086;28;20045;-71
2022/10/19 08:02:17;;;;;;;15.30;1.83;;;11.30;99.90;;;;;;4972321;28;171334;-71
2022/10/19 08:04:43;;;;;;;12.93;1.70;;;11.40;99.90;;;;;;5011168;28;21023;-71
2022/10/19 08:07:09;;;;;;;15.65;1.88;;;11.40;99.90;;;;;;4974130;28;219189;-71
2022/10/19 08:09:36;;;;;;;12.52;1.83;;;11.60;99.90;;;;;;5015759;28;20054;-72
2022/10/19 08:12:03;;;;;;;13.45;1.92;;;11.60;99.90;;;;;;4985253;28;227878;-71
2022/10/19 08:14:30;;;;;;;14.27;2.10;;;11.70;99.90;;;;;;5032492;28;20137;-71
2022/10/19 08:16:56;;;;;;;17.58;2.17;;;11.80;99.90;;;;;;4981771;28;206178;-71
2022/10/19 08:19:23;;;;;;;13.93;1.95;;;11.80;99.90;;;;;;5023115;28;20076;-71
2022/10/19 08:21:49;;;;;;;11.23;1.50;;;11.90;99.90;;;;;;4971369;28;221672;-72
2022/10/19 08:24:18;;;;;;;13.48;1.80;;;12.00;99.90;;;;;;4995549;28;20060;-71
2022/10/19 08:26:44;;;;;;;13.80;1.70;;;12.00;99.90;;;;;;4983419;28;188145;-71
2022/10/19 08:29:18;;;;;;;10.82;1.77;;;12.10;99.90;;;;;;5017952;28;20050;-72
2022/10/19 08:31:46;;;;;;;11.70;1.70;;;12.20;99.90;;;;;;4978830;28;214672;-72
2022/10/19 08:34:14;;;;;;;12.95;1.80;;;12.30;99.90;;;;;;5011960;28;20069;-72
2022/10/19 08:36:40;;;;;;;13.25;1.50;;;12.30;99.90;;;;;;4975803;28;214019;-72
2022/10/19 08:39:08;;;;;;;12.55;1.80;;;12.30;99.90;;;;;;5031551;28;20071;-71
2022/10/19 08:41:40;;;;;;;12.15;1.90;;;12.40;99.90;;;;;;4967799;28;222229;-72
2022/10/19 08:44:32;;;;;;;11.60;1.60;;;12.50;99.90;;;;;;5020987;28;20056;-72
2022/10/19 08:47:25;;;;;;;11.95;1.77;;;12.60;99.90;;;;;;4971821;28;211355;-72
2022/10/19 08:49:52;;;;;;;12.40;1.60;;;12.70;99.90;;;;;;5010383;28;20053;-72
2022/10/19 08:52:22;;;;;;;11.73;1.60;;;12.70;99.90;;;;;;4991824;28;208094;-71
2022/10/19 08:54:51;;;;;;;16.25;1.85;;;12.80;99.90;;;;;;5023541;28;20064;-72
2022/10/19 08:57:38;;;;;;;12.85;1.40;;;12.90;99.90;;;;;;4974577;28;208880;-71
2022/10/19 09:00:14;;;;;;;12.90;1.75;;;13.00;99.90;;;;;;5047300;28;21688;-72
2022/10/19 09:03:03;;;;;;;13.43;1.90;;;13.10;99.90;;;;;;4961804;28;211939;-72
2022/10/19 09:05:41;;;;;;;11.25;1.67;;;13.20;99.90;;;;;;5015349;28;20064;-72
2022/10/19 09:08:09;;;;;;;16.45;1.77;;;13.20;99.90;;;;;;4989518;28;208596;-72
2022/10/19 09:10:40;;;;;;;9.75;1.52;;;13.20;99.90;;;;;;5014805;28;20054;-71
2022/10/19 09:13:24;;;;;;;9.82;1.58;;;13.30;99.90;;;;;;4975551;28;206798;-71
2022/10/19 09:15:54;;;;;;;11.45;1.63;;;13.30;99.90;;;;;;5017164;28;20065;-70
2022/10/19 09:18:33;;;;;;;17.05;2.08;;;13.30;99.90;;;;;;4960635;28;212187;-70
2022/10/19 09:21:12;;;;;;;10.40;1.23;;;13.30;99.90;;;;;;5001659;28;20525;-72
2022/10/19 09:23:57;;;;;;;14.00;1.75;;;13.40;99.90;;;;;;4972490;28;206567;-71
2022/10/19 09:26:28;;;;;;;11.27;1.75;;;13.40;99.90;;;;;;4990440;28;215638;-70
2022/10/19 09:28:57;;;;;;;12.60;1.77;;;13.50;99.90;;;;;;5016544;28;205098;-72
2022/10/19 09:31:33;;;;;;;16.15;1.98;;;13.50;99.90;;;;;;4987466;28;214063;-70
2022/10/19 09:34:07;;;;;;;9.75;1.40;;;13.50;99.90;;;;;;5009677;28;211433;-71
2022/10/19 09:36:41;;;;;;;15.37;1.93;;;13.50;99.90;;;;;;4979651;28;209840;-71
2022/10/19 09:39:11;;;;;;;12.93;1.58;;;13.50;99.90;;;;;;5009673;28;20040;-71
2022/10/19 09:41:52;;;;;;;10.23;1.70;;;13.50;99.90;;;;;;4978118;28;207327;-71
2022/10/19 09:44:19;;;;;;;11.45;1.60;;;13.60;99.90;;;;;;5015847;28;20053;-70
2022/10/19 09:47:10;;;;;;;12.43;1.83;;;13.60;99.90;;;;;;5013553;28;207965;-71
2022/10/19 09:49:40;;;;;;;13.55;1.80;;;13.60;99.90;;;;;;5031718;28;20048;-71
2022/10/19 09:52:24;;;;;;;15.63;1.75;;;13.60;99.90;;;;;;4983607;28;206275;-70
2022/10/19 09:55:16;;;;;;;11.30;1.63;;;13.60;99.90;;;;;;5007205;28;20069;-71
2022/10/19 09:57:44;;;;;;;14.75;1.77;;;13.70;99.90;;;;;;4970210;28;205084;-70
2022/10/19 10:00:25;;;;;;;12.20;1.60;;;13.70;99.90;;;;;;5024677;28;20053;-70
2022/10/19 10:02:53;;;;;;;12.75;1.73;;;13.80;99.90;;;;;;4981873;28;176815;-70
2022/10/19 10:05:32;;;;;;;13.50;2.05;;;13.90;99.90;;;;;;5021096;28;20423;-71
2022/10/19 10:07:58;;;;;;;15.02;1.95;;;14.10;99.90;;;;;;4983677;28;172455;-70
2022/10/19 10:10:46;;;;;;;11.80;1.65;;;14.10;99.90;;;;;;5025063;28;20057;-71
2022/10/19 10:13:18;;;;;;;12.50;1.67;;;14.30;99.90;;;;;;4974248;28;210532;-70
2022/10/19 10:15:48;;;;;;;11.43;1.58;;;14.30;99.90;;;;;;5023925;28;20061;-70
2022/10/19 10:18:17;;;;;;;12.85;1.85;;;14.30;99.90;;;;;;4993978;28;212068;-70
2022/10/19 10:21:01;;;;;;;11.88;1.70;;;14.30;99.90;;;;;;5055305;28;20053;-70
2022/10/19 10:23:35;;;;;;;13.10;1.98;;;14.40;99.90;;;;;;4983123;28;207877;-70
2022/10/19 10:26:02;;;;;;;11.07;1.80;;;14.50;99.90;;;;;;5024418;28;20069;-70
2022/10/19 10:28:29;;;;;;;13.63;2.00;;;14.60;99.90;;;;;;4964080;28;206619;-71
2022/10/19 10:31:03;;;;;;;11.82;1.40;;;14.70;99.90;;;;;;5024447;28;20060;-71
2022/10/19 10:33:34;;;;;;;12.40;1.70;;;14.80;99.90;;;;;;4981053;28;178628;-70
2022/10/19 10:36:08;;;;;;;14.82;1.90;;;14.80;99.90;;;;;;5021672;28;20084;-71
2022/10/19 10:38:40;;;;;;;10.35;1.63;;;15.00;99.90;;;;;;4997393;28;206204;-71
2022/10/19 10:41:16;;;;;;;10.10;1.70;;;15.10;99.90;;;;;;5020037;28;20430;-70
2022/10/19 10:43:56;;;;;;;13.80;1.80;;;15.20;99.90;;;;;;4961857;28;210807;-71
2022/10/19 10:46:27;;;;;;;12.13;1.83;;;15.30;99.90;;;;;;5001195;28;214854;-71
2022/10/19 10:48:56;;;;;;;8.93;1.33;;;15.40;99.90;;;;;;4978893;28;205069;-70
2022/10/19 10:51:38;;;;;;;10.77;1.77;;;15.40;99.90;;;;;;5002759;28;207041;-69
2022/10/19 10:54:25;;;;;;;14.68;1.80;;;15.50;99.90;;;;;;5002241;28;215730;-70
2022/10/19 10:57:17;;;;;;;9.93;1.83;;;15.70;99.90;;;;;;4975815;28;172784;-70
2022/10/19 11:00:02;;;;;;;11.13;1.63;;;15.60;99.90;;;;;;5030473;28;20061;-71
2022/10/19 11:02:52;;;;;;;12.27;1.60;;;15.60;99.90;;;;;;4976969;28;213926;-72
2022/10/19 11:05:26;;;;;;;11.77;1.67;;;15.50;99.90;;;;;;5024446;28;20041;-70
2022/10/19 11:08:03;;;;;;;9.13;1.70;;;15.40;99.90;;;;;;4984383;28;180406;-69
2022/10/19 11:10:34;;;;;;;9.35;1.58;;;15.30;99.90;;;;;;5024666;28;20061;-69
2022/10/19 11:13:15;;;;;;;9.15;1.60;;;15.30;99.90;;;;;;4981403;28;223407;-71
2022/10/19 11:15:52;;;;;;;11.07;1.65;;;15.40;99.90;;;;;;5029038;28;20046;-70
2022/10/19 11:18:24;;;;;;;8.45;1.27;;;15.40;99.90;;;;;;4990403;28;211353;-70
2022/10/19 11:21:04;;;;;;;11.35;1.67;;;15.60;99.90;;;;;;5020787;28;20414;-70
2022/10/19 11:23:48;;;;;;;11.15;1.80;;;15.60;99.90;;;;;;4966991;28;193472;-70
2022/10/19 11:26:53;;;;;;;10.43;1.55;;;15.70;99.90;;;;;;4998077;28;20430;-70
2022/10/19 11:29:28;;;;;;;11.45;1.52;;;15.80;99.90;;;;;;4958876;28;215481;-71
2022/10/19 11:31:55;;;;;;;11.00;1.67;;;16.10;99.90;;;;;;4965983;28;213080;-71
2022/10/19 11:34:42;;;;;;;11.60;1.65;;;16.40;99.90;;;;;;5034092;28;20517;-70
2022/10/19 11:37:28;;;;;;;13.52;1.73;;;16.60;99.90;;;;;;4988909;28;216412;-71
2022/10/19 11:40:25;;;;;;;10.63;1.48;;;16.90;99.90;;;;;;5013540;28;20049;-71
2022/10/19 11:43:03;;;;;;;10.43;1.90;;;17.10;99.90;;;;;;4965884;28;203702;-69
2022/10/19 11:45:48;;;;;;;10.02;1.45;;;17.20;99.90;;;;;;5005978;28;20208;-70
2022/10/19 11:48:53;;;;;;;9.52;1.65;;;17.10;99.90;;;;;;4962552;28;208828;-70
2022/10/19 11:51:38;;;;;;;10.10;1.63;;;16.90;99.90;;;;;;5002081;28;209145;-70
2022/10/19 11:54:34;;;;;;;11.13;1.70;;;16.70;99.90;;;;;;4963086;28;215989;-70
2022/10/19 11:57:28;;;;;;;8.57;1.60;;;16.50;99.90;;;;;;4964087;28;206310;-70
2022/10/19 12:00:09;;;;;;;15.45;2.00;;;16.50;99.90;;;;;;5011510;28;20059;-70
2022/10/19 12:02:54;;;;;;;10.10;1.50;;;16.30;99.90;;;;;;4961127;28;206653;-70
2022/10/19 12:05:45;;;;;;;16.58;2.03;;;16.40;99.90;;;;;;5021026;28;20064;-70
2022/10/19 12:08:27;;;;;;;14.13;1.80;;;16.30;99.90;;;;;;4992007;28;206485;-70
2022/10/19 12:11:02;;;;;;;8.88;1.50;;;16.30;99.90;;;;;;5052327;28;20054;-70
2022/10/19 12:13:43;;;;;;;11.23;1.60;;;16.10;99.90;;;;;;4974086;28;207832;-70
2022/10/19 12:16:10;;;;;;;;;;;16.10;99.90;;;;;;5021343;28;20053;-71
2022/10/19 12:18:36;;;;;;;13.38;1.80;;;16.20;99.90;;;;;;4957535;28;207076;-70
2022/10/19 12:21:29;;;;;;;12.32;1.88;;;16.50;99.90;;;;;;5015772;28;20056;-70
2022/10/19 12:23:58;;;;;;;11.48;1.60;;;17.40;99.90;;;;;;4956797;28;206536;-70
2022/10/19 12:26:28;;;;;;;10.73;1.60;;;18.30;99.90;;;;;;4963357;28;198664;-70
2022/10/19 12:29:05;;;;;;;9.60;1.23;;;18.70;99.90;;;;;;5007167;28;20052;-70
2022/10/19 12:31:32;;;;;;;9.75;1.67;;;18.20;99.70;;;;;;4956937;28;206757;-70
2022/10/19 12:34:16;;;;;;;9.27;1.48;;;17.90;99.70;;;;;;5004928;28;20049;-70
2022/10/19 12:37:21;;;;;;;11.10;1.52;;;17.80;99.60;;;;;;4964864;28;154398;-70
2022/10/19 12:39:58;;;;;;;11.15;1.85;;;17.60;99.80;;;;;;4935472;28;20062;-70
2022/10/19 12:42:42;;;;;;;11.35;1.88;;;17.60;99.90;;;;;;4903900;28;82765;-70
2022/10/19 12:45:26;;;;;;;9.68;1.70;;;17.60;99.90;;;;;;4934285;29;20051;-69
2022/10/19 12:48:07;;;;;;;10.43;1.45;;;17.60;99.90;;;;;;4890235;28;210036;-69
2022/10/19 12:50:48;;;;;;;9.73;1.55;;;17.60;99.50;;;;;;4913365;28;20399;-69
2022/10/19 12:53:25;;;;;;;;;;;17.30;99.30;;;;;;4897636;28;217682;-69
2022/10/19 12:56:19;;;;;;;10.52;1.67;;;16.80;98.40;;;;;;4961517;28;19923;-69
2022/10/19 12:58:51;;;;;;;10.38;1.50;;;16.50;99.60;;;;;;4903886;28;203602;-69
2022/10/19 13:01:25;;;;;;;10.18;1.52;;;16.30;99.90;;;;;;4932785;28;66919;-71